<?xml version="1.0" encoding="UTF-8" standalone="no" ?><gpx xmlns="http://www.topografix.com/GPX/1/1" xmlns:gpxx="http://www.garmin.com/xmlschemas/GpxExtensions/v3" xmlns:wptx1="http://www.garmin.com/xmlschemas/WaypointExtension/v1" xmlns:gpxtpx="http://www.garmin.com/xmlschemas/TrackPointExtension/v1" creator="GuideVTT.com" version="1.1" xmlns:xsi="http://www.w3.org/2001/XMLSchema-instance" xsi:schemaLocation="http://www.topografix.com/GPX/1/1 http://www.topografix.com/GPX/1/1/gpx.xsd http://www.garmin.com/xmlschemas/GpxExtensions/v3 http://www8.garmin.com/xmlschemas/GpxExtensionsv3.xsd http://www.garmin.com/xmlschemas/WaypointExtension/v1 http://www8.garmin.com/xmlschemas/WaypointExtensionv1.xsd http://www.garmin.com/xmlschemas/TrackPointExtension/v1 http://www.garmin.com/xmlschemas/TrackPointExtensionv1.xsd">
<metadata><link href="http://www.garmin.com"><text>Garmin International</text></link><time>2013-06-22T15:13:50Z</time></metadata>
<trk><name>rp_sortie20.gpx</name><extensions><gpxx:TrackExtension><gpxx:DisplayColor>Cyan</gpxx:DisplayColor></gpxx:TrackExtension></extensions><trkseg>
<trkpt lat="47.41514683" lon="7.07566738"><ele></ele><time>2014-6-13T4:6:3Z</time></trkpt>
<trkpt lat="47.41495371" lon="7.07498074"><ele></ele><time>2014-6-13T4:6:6Z</time></trkpt>
<trkpt lat="47.41630554" lon="7.07390785"><ele></ele><time>2014-6-13T4:6:9Z</time></trkpt>
<trkpt lat="47.41647720" lon="7.07289934"><ele></ele><time>2014-6-13T4:6:12Z</time></trkpt>
<trkpt lat="47.41690636" lon="7.07247019"><ele></ele><time>2014-6-13T4:6:15Z</time></trkpt>
<trkpt lat="47.41697073" lon="7.07221270"><ele></ele><time>2014-6-13T4:6:18Z</time></trkpt>
<trkpt lat="47.41660595" lon="7.07277060"><ele></ele><time>2014-6-13T4:6:21Z</time></trkpt>
<trkpt lat="47.41564035" lon="7.07384348"><ele></ele><time>2014-6-13T4:6:24Z</time></trkpt>
<trkpt lat="47.41467476" lon="7.07446575"><ele></ele><time>2014-6-13T4:6:27Z</time></trkpt>
<trkpt lat="47.41443872" lon="7.07437992"><ele></ele><time>2014-6-13T4:6:30Z</time></trkpt>
<trkpt lat="47.41418123" lon="7.07392931"><ele></ele><time>2014-6-13T4:6:33Z</time></trkpt>
<trkpt lat="47.41244316" lon="7.07410097"><ele></ele><time>2014-6-13T4:6:36Z</time></trkpt>
<trkpt lat="47.41096258" lon="7.07350016"><ele></ele><time>2014-6-13T4:6:39Z</time></trkpt>
<trkpt lat="47.41068363" lon="7.07332850"><ele></ele><time>2014-6-13T4:6:42Z</time></trkpt>
<trkpt lat="47.41042614" lon="7.07292080"><ele></ele><time>2014-6-13T4:6:45Z</time></trkpt>
<trkpt lat="47.40997553" lon="7.07193375"><ele></ele><time>2014-6-13T4:6:48Z</time></trkpt>
<trkpt lat="47.40748644" lon="7.06927299"><ele></ele><time>2014-6-13T4:6:51Z</time></trkpt>
<trkpt lat="47.40682125" lon="7.06824303"><ele></ele><time>2014-6-13T4:6:54Z</time></trkpt>
<trkpt lat="47.40607023" lon="7.06757784"><ele></ele><time>2014-6-13T4:6:57Z</time></trkpt>
<trkpt lat="47.40566254" lon="7.06732035"><ele></ele><time>2014-6-13T4:7:0Z</time></trkpt>
<trkpt lat="47.40446091" lon="7.06729889"><ele></ele><time>2014-6-13T4:7:3Z</time></trkpt>
<trkpt lat="47.40214348" lon="7.06646204"><ele></ele><time>2014-6-13T4:7:6Z</time></trkpt>
<trkpt lat="47.40070581" lon="7.06483126"><ele></ele><time>2014-6-13T4:7:9Z</time></trkpt>
<trkpt lat="47.39956856" lon="7.06390858"><ele></ele><time>2014-6-13T4:7:12Z</time></trkpt>
<trkpt lat="47.39926815" lon="7.06388712"><ele></ele><time>2014-6-13T4:7:15Z</time></trkpt>
<trkpt lat="47.39918232" lon="7.06414461"><ele></ele><time>2014-6-13T4:7:18Z</time></trkpt>
<trkpt lat="47.39911795" lon="7.06577539"><ele></ele><time>2014-6-13T4:7:21Z</time></trkpt>
<trkpt lat="47.39798069" lon="7.06596851"><ele></ele><time>2014-6-13T4:7:24Z</time></trkpt>
<trkpt lat="47.39847422" lon="7.06704140"><ele></ele><time>2014-6-13T4:7:27Z</time></trkpt>
<trkpt lat="47.39918232" lon="7.07077503"><ele></ele><time>2014-6-13T4:7:30Z</time></trkpt>
<trkpt lat="47.39911795" lon="7.07109690"><ele></ele><time>2014-6-13T4:7:33Z</time></trkpt>
<trkpt lat="47.39673615" lon="7.07109690"><ele></ele><time>2014-6-13T4:7:36Z</time></trkpt>
<trkpt lat="47.39358187" lon="7.07021713"><ele></ele><time>2014-6-13T4:7:39Z</time></trkpt>
<trkpt lat="47.39341021" lon="7.07088232"><ele></ele><time>2014-6-13T4:7:42Z</time></trkpt>
<trkpt lat="47.39210129" lon="7.07015276"><ele></ele><time>2014-6-13T4:7:45Z</time></trkpt>
<trkpt lat="47.39162922" lon="7.06978798"><ele></ele><time>2014-6-13T4:7:48Z</time></trkpt>
<trkpt lat="47.39079237" lon="7.06817865"><ele></ele><time>2014-6-13T4:7:51Z</time></trkpt>
<trkpt lat="47.39034176" lon="7.06609726"><ele></ele><time>2014-6-13T4:7:54Z</time></trkpt>
<trkpt lat="47.38989115" lon="7.06496000"><ele></ele><time>2014-6-13T4:7:57Z</time></trkpt>
<trkpt lat="47.38886118" lon="7.06317902"><ele></ele><time>2014-6-13T4:8:0Z</time></trkpt>
<trkpt lat="47.38690853" lon="7.06021786"><ele></ele><time>2014-6-13T4:8:3Z</time></trkpt>
<trkpt lat="47.38665104" lon="7.05961704"><ele></ele><time>2014-6-13T4:8:6Z</time></trkpt>
<trkpt lat="47.38553524" lon="7.05893040"><ele></ele><time>2014-6-13T4:8:9Z</time></trkpt>
<trkpt lat="47.38467693" lon="7.05953121"><ele></ele><time>2014-6-13T4:8:12Z</time></trkpt>
<trkpt lat="47.38446236" lon="7.05944538"><ele></ele><time>2014-6-13T4:8:15Z</time></trkpt>
<trkpt lat="47.38435507" lon="7.05908060"><ele></ele><time>2014-6-13T4:8:18Z</time></trkpt>
<trkpt lat="47.38461256" lon="7.05738544"><ele></ele><time>2014-6-13T4:8:21Z</time></trkpt>
<trkpt lat="47.38448381" lon="7.05704212"><ele></ele><time>2014-6-13T4:8:24Z</time></trkpt>
<trkpt lat="47.38429070" lon="7.05697775"><ele></ele><time>2014-6-13T4:8:27Z</time></trkpt>
<trkpt lat="47.38360405" lon="7.05764294"><ele></ele><time>2014-6-13T4:8:30Z</time></trkpt>
<trkpt lat="47.38338947" lon="7.05742836"><ele></ele><time>2014-6-13T4:8:33Z</time></trkpt>
<trkpt lat="47.38349676" lon="7.05633402"><ele></ele><time>2014-6-13T4:8:36Z</time></trkpt>
<trkpt lat="47.38341093" lon="7.05590487"><ele></ele><time>2014-6-13T4:8:39Z</time></trkpt>
<trkpt lat="47.38323927" lon="7.05571175"><ele></ele><time>2014-6-13T4:8:42Z</time></trkpt>
<trkpt lat="47.38223076" lon="7.05644131"><ele></ele><time>2014-6-13T4:8:45Z</time></trkpt>
<trkpt lat="47.38126516" lon="7.05646276"><ele></ele><time>2014-6-13T4:8:48Z</time></trkpt>
<trkpt lat="47.38002062" lon="7.05607653"><ele></ele><time>2014-6-13T4:8:51Z</time></trkpt>
<trkpt lat="47.37965584" lon="7.05571175"><ele></ele><time>2014-6-13T4:8:54Z</time></trkpt>
<trkpt lat="47.37937689" lon="7.05511093"><ele></ele><time>2014-6-13T4:8:57Z</time></trkpt>
<trkpt lat="47.37845421" lon="7.05502510"><ele></ele><time>2014-6-13T4:9:0Z</time></trkpt>
<trkpt lat="47.37815380" lon="7.05517530"><ele></ele><time>2014-6-13T4:9:3Z</time></trkpt>
<trkpt lat="47.37776756" lon="7.05599070"><ele></ele><time>2014-6-13T4:9:6Z</time></trkpt>
<trkpt lat="47.37766027" lon="7.05717087"><ele></ele><time>2014-6-13T4:9:9Z</time></trkpt>
<trkpt lat="47.37766027" lon="7.06047535"><ele></ele><time>2014-6-13T4:9:12Z</time></trkpt>
<trkpt lat="47.37746716" lon="7.06313610"><ele></ele><time>2014-6-13T4:9:15Z</time></trkpt>
<trkpt lat="47.37761736" lon="7.06453085"><ele></ele><time>2014-6-13T4:9:18Z</time></trkpt>
<trkpt lat="47.37731695" lon="7.06470251"><ele></ele><time>2014-6-13T4:9:21Z</time></trkpt>
<trkpt lat="47.37598658" lon="7.06414461"><ele></ele><time>2014-6-13T4:9:24Z</time></trkpt>
<trkpt lat="47.37553596" lon="7.06281424"><ele></ele><time>2014-6-13T4:9:27Z</time></trkpt>
<trkpt lat="47.37527847" lon="7.06129074"><ele></ele><time>2014-6-13T4:9:30Z</time></trkpt>
<trkpt lat="47.37545013" lon="7.06109762"><ele></ele><time>2014-6-13T4:9:33Z</time></trkpt>
<trkpt lat="47.37467766" lon="7.05959558"><ele></ele><time>2014-6-13T4:9:36Z</time></trkpt>
<trkpt lat="47.37467766" lon="7.05882311"><ele></ele><time>2014-6-13T4:9:39Z</time></trkpt>
<trkpt lat="47.37409830" lon="7.05691338"><ele></ele><time>2014-6-13T4:9:42Z</time></trkpt>
<trkpt lat="47.37386227" lon="7.05528259"><ele></ele><time>2014-6-13T4:9:45Z</time></trkpt>
<trkpt lat="47.37323999" lon="7.05365181"><ele></ele><time>2014-6-13T4:9:48Z</time></trkpt>
<trkpt lat="47.37386227" lon="7.05275059"><ele></ele><time>2014-6-13T4:9:51Z</time></trkpt>
<trkpt lat="47.37396955" lon="7.05227852"><ele></ele><time>2014-6-13T4:9:54Z</time></trkpt>
<trkpt lat="47.37439871" lon="7.04955339"><ele></ele><time>2014-6-13T4:9:57Z</time></trkpt>
<trkpt lat="47.37457037" lon="7.04740763"><ele></ele><time>2014-6-13T4:10:0Z</time></trkpt>
<trkpt lat="47.37426996" lon="7.04489708"><ele></ele><time>2014-6-13T4:10:3Z</time></trkpt>
<trkpt lat="47.37463474" lon="7.04399586"><ele></ele><time>2014-6-13T4:10:6Z</time></trkpt>
<trkpt lat="47.37442017" lon="7.04363108"><ele></ele><time>2014-6-13T4:10:9Z</time></trkpt>
<trkpt lat="47.37429142" lon="7.04290152"><ele></ele><time>2014-6-13T4:10:12Z</time></trkpt>
<trkpt lat="47.37433434" lon="7.04041243"><ele></ele><time>2014-6-13T4:10:15Z</time></trkpt>
<trkpt lat="47.37409830" lon="7.03910351"><ele></ele><time>2014-6-13T4:10:18Z</time></trkpt>
<trkpt lat="47.37435579" lon="7.03850269"><ele></ele><time>2014-6-13T4:10:21Z</time></trkpt>
<trkpt lat="47.37416267" lon="7.03738689"><ele></ele><time>2014-6-13T4:10:24Z</time></trkpt>
<trkpt lat="47.37399101" lon="7.03710794"><ele></ele><time>2014-6-13T4:10:27Z</time></trkpt>
<trkpt lat="47.37381935" lon="7.03745127"><ele></ele><time>2014-6-13T4:10:30Z</time></trkpt>
<trkpt lat="47.37339020" lon="7.03970432"><ele></ele><time>2014-6-13T4:10:33Z</time></trkpt>
<trkpt lat="47.37287521" lon="7.04047680"><ele></ele><time>2014-6-13T4:10:36Z</time></trkpt>
<trkpt lat="47.37332582" lon="7.04054117"><ele></ele><time>2014-6-13T4:10:39Z</time></trkpt>
<trkpt lat="47.37315416" lon="7.04056263"><ele></ele><time>2014-6-13T4:10:42Z</time></trkpt>
<trkpt lat="47.37308979" lon="7.04090595"><ele></ele><time>2014-6-13T4:10:45Z</time></trkpt>
<trkpt lat="47.37227440" lon="7.04219341"><ele></ele><time>2014-6-13T4:10:48Z</time></trkpt>
<trkpt lat="47.37167358" lon="7.05017567"><ele></ele><time>2014-6-13T4:10:51Z</time></trkpt>
<trkpt lat="47.37141609" lon="7.05111980"><ele></ele><time>2014-6-13T4:10:54Z</time></trkpt>
<trkpt lat="47.37115860" lon="7.05137730"><ele></ele><time>2014-6-13T4:10:57Z</time></trkpt>
<trkpt lat="47.37030029" lon="7.05131292"><ele></ele><time>2014-6-13T4:11:0Z</time></trkpt>
<trkpt lat="47.37012863" lon="7.05146313"><ele></ele><time>2014-6-13T4:11:3Z</time></trkpt>
<trkpt lat="47.37109423" lon="7.05386639"><ele></ele><time>2014-6-13T4:11:6Z</time></trkpt>
<trkpt lat="47.37055779" lon="7.05251455"><ele></ele><time>2014-6-13T4:11:9Z</time></trkpt>
<trkpt lat="47.37049341" lon="7.05257893"><ele></ele><time>2014-6-13T4:11:12Z</time></trkpt>
<trkpt lat="47.37045050" lon="7.05217123"><ele></ele><time>2014-6-13T4:11:15Z</time></trkpt>
<trkpt lat="47.36989260" lon="7.05075502"><ele></ele><time>2014-6-13T4:11:18Z</time></trkpt>
<trkpt lat="47.36946344" lon="7.04811573"><ele></ele><time>2014-6-13T4:11:21Z</time></trkpt>
<trkpt lat="47.36991405" lon="7.04702139"><ele></ele><time>2014-6-13T4:11:24Z</time></trkpt>
<trkpt lat="47.36965656" lon="7.04699993"><ele></ele><time>2014-6-13T4:11:27Z</time></trkpt>
<trkpt lat="47.36922741" lon="7.04468250"><ele></ele><time>2014-6-13T4:11:30Z</time></trkpt>
<trkpt lat="47.36912012" lon="7.04378128"><ele></ele><time>2014-6-13T4:11:33Z</time></trkpt>
<trkpt lat="47.36946344" lon="7.04296589"><ele></ele><time>2014-6-13T4:11:36Z</time></trkpt>
<trkpt lat="47.36929178" lon="7.04191446"><ele></ele><time>2014-6-13T4:11:39Z</time></trkpt>
<trkpt lat="47.36811161" lon="7.03903913"><ele></ele><time>2014-6-13T4:11:42Z</time></trkpt>
<trkpt lat="47.36690998" lon="7.03509092"><ele></ele><time>2014-6-13T4:11:45Z</time></trkpt>
<trkpt lat="47.36523628" lon="7.03118563"><ele></ele><time>2014-6-13T4:11:48Z</time></trkpt>
<trkpt lat="47.36491442" lon="7.02777386"><ele></ele><time>2014-6-13T4:11:51Z</time></trkpt>
<trkpt lat="47.36405611" lon="7.02644348"><ele></ele><time>2014-6-13T4:11:54Z</time></trkpt>
<trkpt lat="47.36371279" lon="7.02253819"><ele></ele><time>2014-6-13T4:11:57Z</time></trkpt>
<trkpt lat="47.36448526" lon="7.01996326"><ele></ele><time>2014-6-13T4:12:0Z</time></trkpt>
<trkpt lat="47.36465693" lon="7.01869726"><ele></ele><time>2014-6-13T4:12:3Z</time></trkpt>
<trkpt lat="47.36409903" lon="7.01131582"><ele></ele><time>2014-6-13T4:12:6Z</time></trkpt>
<trkpt lat="47.36420631" lon="7.01007128"><ele></ele><time>2014-6-13T4:12:9Z</time></trkpt>
<trkpt lat="47.36465693" lon="7.00882673"><ele></ele><time>2014-6-13T4:12:12Z</time></trkpt>
<trkpt lat="47.36463547" lon="7.00794697"><ele></ele><time>2014-6-13T4:12:15Z</time></trkpt>
<trkpt lat="47.36397028" lon="7.00620890"><ele></ele><time>2014-6-13T4:12:18Z</time></trkpt>
<trkpt lat="47.36326218" lon="7.00513601"><ele></ele><time>2014-6-13T4:12:21Z</time></trkpt>
<trkpt lat="47.36171722" lon="7.00150967"><ele></ele><time>2014-6-13T4:12:24Z</time></trkpt>
<trkpt lat="47.36173868" lon="7.00114489"><ele></ele><time>2014-6-13T4:12:27Z</time></trkpt>
<trkpt lat="47.36214638" lon="7.00084448"><ele></ele><time>2014-6-13T4:12:30Z</time></trkpt>
<trkpt lat="47.36236095" lon="7.00043678"><ele></ele><time>2014-6-13T4:12:33Z</time></trkpt>
<trkpt lat="47.36169577" lon="6.99829102"><ele></ele><time>2014-6-13T4:12:36Z</time></trkpt>
<trkpt lat="47.35935688" lon="6.99382782"><ele></ele><time>2014-6-13T4:12:39Z</time></trkpt>
<trkpt lat="47.35922813" lon="6.99213266"><ele></ele><time>2014-6-13T4:12:42Z</time></trkpt>
<trkpt lat="47.36012936" lon="6.98904276"><ele></ele><time>2014-6-13T4:12:45Z</time></trkpt>
<trkpt lat="47.36030102" lon="6.98698282"><ele></ele><time>2014-6-13T4:12:48Z</time></trkpt>
<trkpt lat="47.35982895" lon="6.98513746"><ele></ele><time>2014-6-13T4:12:51Z</time></trkpt>
<trkpt lat="47.35991478" lon="6.98217630"><ele></ele><time>2014-6-13T4:12:54Z</time></trkpt>
<trkpt lat="47.35972166" lon="6.98026657"><ele></ele><time>2014-6-13T4:12:57Z</time></trkpt>
<trkpt lat="47.35804796" lon="6.97432280"><ele></ele><time>2014-6-13T4:13:0Z</time></trkpt>
<trkpt lat="47.35828400" lon="6.97355032"><ele></ele><time>2014-6-13T4:13:3Z</time></trkpt>
<trkpt lat="47.35909939" lon="6.97249889"><ele></ele><time>2014-6-13T4:13:6Z</time></trkpt>
<trkpt lat="47.36030102" lon="6.97061062"><ele></ele><time>2014-6-13T4:13:9Z</time></trkpt>
<trkpt lat="47.36021519" lon="6.97018147"><ele></ele><time>2014-6-13T4:13:12Z</time></trkpt>
<trkpt lat="47.35967875" lon="6.96955919"><ele></ele><time>2014-6-13T4:13:15Z</time></trkpt>
<trkpt lat="47.36027956" lon="6.96955919"><ele></ele><time>2014-6-13T4:13:18Z</time></trkpt>
<trkpt lat="47.36113787" lon="6.97022438"><ele></ele><time>2014-6-13T4:13:21Z</time></trkpt>
<trkpt lat="47.36120224" lon="6.97061062"><ele></ele><time>2014-6-13T4:13:24Z</time></trkpt>
<trkpt lat="47.36092329" lon="6.97123289"><ele></ele><time>2014-6-13T4:13:27Z</time></trkpt>
<trkpt lat="47.36103058" lon="6.97129726"><ele></ele><time>2014-6-13T4:13:30Z</time></trkpt>
<trkpt lat="47.36182451" lon="6.97071791"><ele></ele><time>2014-6-13T4:13:33Z</time></trkpt>
<trkpt lat="47.36302614" lon="6.97041750"><ele></ele><time>2014-6-13T4:13:36Z</time></trkpt>
<trkpt lat="47.36356258" lon="6.96975231"><ele></ele><time>2014-6-13T4:13:39Z</time></trkpt>
<trkpt lat="47.36384153" lon="6.96955919"><ele></ele><time>2014-6-13T4:13:42Z</time></trkpt>
<trkpt lat="47.36459255" lon="6.96949482"><ele></ele><time>2014-6-13T4:13:45Z</time></trkpt>
<trkpt lat="47.36448526" lon="6.96923733"><ele></ele><time>2014-6-13T4:13:48Z</time></trkpt>
<trkpt lat="47.36279011" lon="6.96867943"><ele></ele><time>2014-6-13T4:13:51Z</time></trkpt>
<trkpt lat="47.36251116" lon="6.96846485"><ele></ele><time>2014-6-13T4:13:54Z</time></trkpt>
<trkpt lat="47.36240387" lon="6.96810007"><ele></ele><time>2014-6-13T4:13:57Z</time></trkpt>
<trkpt lat="47.36452818" lon="6.96344376"><ele></ele><time>2014-6-13T4:14:0Z</time></trkpt>
<trkpt lat="47.36480713" lon="6.96314335"><ele></ele><time>2014-6-13T4:14:3Z</time></trkpt>
<trkpt lat="47.36594439" lon="6.96262836"><ele></ele><time>2014-6-13T4:14:6Z</time></trkpt>
<trkpt lat="47.36628771" lon="6.96185589"><ele></ele><time>2014-6-13T4:14:9Z</time></trkpt>
<trkpt lat="47.36607313" lon="6.95992470"><ele></ele><time>2014-6-13T4:14:12Z</time></trkpt>
<trkpt lat="47.36618042" lon="6.95923805"><ele></ele><time>2014-6-13T4:14:15Z</time></trkpt>
<trkpt lat="47.36588001" lon="6.95762873"><ele></ele><time>2014-6-13T4:14:18Z</time></trkpt>
<trkpt lat="47.36645937" lon="6.95767164"><ele></ele><time>2014-6-13T4:14:21Z</time></trkpt>
<trkpt lat="47.36682415" lon="6.95814371"><ele></ele><time>2014-6-13T4:14:24Z</time></trkpt>
<trkpt lat="47.36710310" lon="6.95820808"><ele></ele><time>2014-6-13T4:14:27Z</time></trkpt>
<trkpt lat="47.36751080" lon="6.95668459"><ele></ele><time>2014-6-13T4:14:30Z</time></trkpt>
<trkpt lat="47.36742496" lon="6.95552588"><ele></ele><time>2014-6-13T4:14:33Z</time></trkpt>
<trkpt lat="47.36633062" lon="6.95168495"><ele></ele><time>2014-6-13T4:14:36Z</time></trkpt>
<trkpt lat="47.36656666" lon="6.95256472"><ele></ele><time>2014-6-13T4:14:39Z</time></trkpt>
<trkpt lat="47.36669540" lon="6.95258617"><ele></ele><time>2014-6-13T4:14:42Z</time></trkpt>
<trkpt lat="47.36630917" lon="6.95009708"><ele></ele><time>2014-6-13T4:14:45Z</time></trkpt>
<trkpt lat="47.36641645" lon="6.94958210"><ele></ele><time>2014-6-13T4:14:48Z</time></trkpt>
<trkpt lat="47.36663103" lon="6.94973230"><ele></ele><time>2014-6-13T4:14:51Z</time></trkpt>
<trkpt lat="47.36697435" lon="6.95082664"><ele></ele><time>2014-6-13T4:14:54Z</time></trkpt>
<trkpt lat="47.36901283" lon="6.95368052"><ele></ele><time>2014-6-13T4:14:57Z</time></trkpt>
<trkpt lat="47.36935616" lon="6.95711374"><ele></ele><time>2014-6-13T4:15:0Z</time></trkpt>
<trkpt lat="47.37030029" lon="6.95788622"><ele></ele><time>2014-6-13T4:15:3Z</time></trkpt>
<trkpt lat="47.37092257" lon="6.95878744"><ele></ele><time>2014-6-13T4:15:6Z</time></trkpt>
<trkpt lat="47.37105131" lon="6.95930243"><ele></ele><time>2014-6-13T4:15:9Z</time></trkpt>
<trkpt lat="47.37115860" lon="6.96061134"><ele></ele><time>2014-6-13T4:15:12Z</time></trkpt>
<trkpt lat="47.37092257" lon="6.96314335"><ele></ele><time>2014-6-13T4:15:15Z</time></trkpt>
<trkpt lat="47.37165213" lon="6.96509600"><ele></ele><time>2014-6-13T4:15:18Z</time></trkpt>
<trkpt lat="47.37118006" lon="6.96612597"><ele></ele><time>2014-6-13T4:15:21Z</time></trkpt>
<trkpt lat="47.37090111" lon="6.96588993"><ele></ele><time>2014-6-13T4:15:24Z</time></trkpt>
<trkpt lat="47.36976385" lon="6.96580410"><ele></ele><time>2014-6-13T4:15:27Z</time></trkpt>
<trkpt lat="47.36903429" lon="6.96638346"><ele></ele><time>2014-6-13T4:15:30Z</time></trkpt>
<trkpt lat="47.36899137" lon="6.96691990"><ele></ele><time>2014-6-13T4:15:33Z</time></trkpt>
<trkpt lat="47.36907721" lon="6.96775675"><ele></ele><time>2014-6-13T4:15:36Z</time></trkpt>
<trkpt lat="47.36965656" lon="6.96928024"><ele></ele><time>2014-6-13T4:15:39Z</time></trkpt>
<trkpt lat="47.36999989" lon="6.96917295"><ele></ele><time>2014-6-13T4:15:42Z</time></trkpt>
<trkpt lat="47.37045050" lon="6.96947336"><ele></ele><time>2014-6-13T4:15:45Z</time></trkpt>
<trkpt lat="47.37083673" lon="6.97013855"><ele></ele><time>2014-6-13T4:15:48Z</time></trkpt>
<trkpt lat="47.37083673" lon="6.97172642"><ele></ele><time>2014-6-13T4:15:51Z</time></trkpt>
<trkpt lat="47.37148046" lon="6.97404385"><ele></ele><time>2014-6-13T4:15:54Z</time></trkpt>
<trkpt lat="47.37188816" lon="6.97415113"><ele></ele><time>2014-6-13T4:15:57Z</time></trkpt>
<trkpt lat="47.37251043" lon="6.97355032"><ele></ele><time>2014-6-13T4:16:0Z</time></trkpt>
<trkpt lat="47.37321854" lon="6.97406530"><ele></ele><time>2014-6-13T4:16:3Z</time></trkpt>
<trkpt lat="47.37454891" lon="6.97591066"><ele></ele><time>2014-6-13T4:16:6Z</time></trkpt>
<trkpt lat="47.37545013" lon="6.97646856"><ele></ele><time>2014-6-13T4:16:9Z</time></trkpt>
<trkpt lat="47.37613678" lon="6.97754145"><ele></ele><time>2014-6-13T4:16:12Z</time></trkpt>
<trkpt lat="47.37671614" lon="6.98000908"><ele></ele><time>2014-6-13T4:16:15Z</time></trkpt>
<trkpt lat="47.37755299" lon="6.97973013"><ele></ele><time>2014-6-13T4:16:18Z</time></trkpt>
<trkpt lat="47.37787485" lon="6.97912931"><ele></ele><time>2014-6-13T4:16:21Z</time></trkpt>
<trkpt lat="47.37864733" lon="6.97820663"><ele></ele><time>2014-6-13T4:16:24Z</time></trkpt>
<trkpt lat="47.37920523" lon="6.97704792"><ele></ele><time>2014-6-13T4:16:27Z</time></trkpt>
<trkpt lat="47.37937689" lon="6.97797060"><ele></ele><time>2014-6-13T4:16:30Z</time></trkpt>
<trkpt lat="47.37879753" lon="6.97960138"><ele></ele><time>2014-6-13T4:16:33Z</time></trkpt>
<trkpt lat="47.37854004" lon="6.98121071"><ele></ele><time>2014-6-13T4:16:36Z</time></trkpt>
<trkpt lat="47.37933397" lon="6.97925806"><ele></ele><time>2014-6-13T4:16:39Z</time></trkpt>
<trkpt lat="47.37999916" lon="6.97910786"><ele></ele><time>2014-6-13T4:16:42Z</time></trkpt>
<trkpt lat="47.38014936" lon="6.97889328"><ele></ele><time>2014-6-13T4:16:45Z</time></trkpt>
<trkpt lat="47.38055706" lon="6.97745562"><ele></ele><time>2014-6-13T4:16:48Z</time></trkpt>
<trkpt lat="47.38070726" lon="6.97618961"><ele></ele><time>2014-6-13T4:16:51Z</time></trkpt>
<trkpt lat="47.38019228" lon="6.97537422"><ele></ele><time>2014-6-13T4:16:54Z</time></trkpt>
<trkpt lat="47.38032103" lon="6.97522402"><ele></ele><time>2014-6-13T4:16:57Z</time></trkpt>
<trkpt lat="47.38059998" lon="6.97533131"><ele></ele><time>2014-6-13T4:17:0Z</time></trkpt>
<trkpt lat="47.38090038" lon="6.97698355"><ele></ele><time>2014-6-13T4:17:3Z</time></trkpt>
<trkpt lat="47.38139391" lon="6.97831392"><ele></ele><time>2014-6-13T4:17:6Z</time></trkpt>
<trkpt lat="47.38141537" lon="6.97966576"><ele></ele><time>2014-6-13T4:17:9Z</time></trkpt>
<trkpt lat="47.38201618" lon="6.98230505"><ele></ele><time>2014-6-13T4:17:12Z</time></trkpt>
<trkpt lat="47.38208055" lon="6.98449373"><ele></ele><time>2014-6-13T4:17:15Z</time></trkpt>
<trkpt lat="47.38235950" lon="6.98513746"><ele></ele><time>2014-6-13T4:17:18Z</time></trkpt>
<trkpt lat="47.38353968" lon="6.98687553"><ele></ele><time>2014-6-13T4:17:21Z</time></trkpt>
<trkpt lat="47.38487005" lon="6.98781967"><ele></ele><time>2014-6-13T4:17:24Z</time></trkpt>
<trkpt lat="47.38534212" lon="6.98807716"><ele></ele><time>2014-6-13T4:17:27Z</time></trkpt>
<trkpt lat="47.38658667" lon="6.98771238"><ele></ele><time>2014-6-13T4:17:30Z</time></trkpt>
<trkpt lat="47.38738060" lon="6.98792696"><ele></ele><time>2014-6-13T4:17:33Z</time></trkpt>
<trkpt lat="47.38929033" lon="6.98981524"><ele></ele><time>2014-6-13T4:17:36Z</time></trkpt>
<trkpt lat="47.39102840" lon="6.99193954"><ele></ele><time>2014-6-13T4:17:39Z</time></trkpt>
<trkpt lat="47.39113569" lon="6.99344158"><ele></ele><time>2014-6-13T4:17:42Z</time></trkpt>
<trkpt lat="47.39098549" lon="6.99496508"><ele></ele><time>2014-6-13T4:17:45Z</time></trkpt>
<trkpt lat="47.39162922" lon="6.99884892"><ele></ele><time>2014-6-13T4:17:48Z</time></trkpt>
<trkpt lat="47.39203691" lon="6.99910641"><ele></ele><time>2014-6-13T4:17:51Z</time></trkpt>
<trkpt lat="47.39332438" lon="7.00131655"><ele></ele><time>2014-6-13T4:17:54Z</time></trkpt>
<trkpt lat="47.39418268" lon="7.00387001"><ele></ele><time>2014-6-13T4:17:57Z</time></trkpt>
<trkpt lat="47.39452600" lon="7.00406313"><ele></ele><time>2014-6-13T4:18:0Z</time></trkpt>
<trkpt lat="47.39581347" lon="7.00365543"><ele></ele><time>2014-6-13T4:18:3Z</time></trkpt>
<trkpt lat="47.39632845" lon="7.00369835"><ele></ele><time>2014-6-13T4:18:6Z</time></trkpt>
<trkpt lat="47.39868879" lon="7.00432062"><ele></ele><time>2014-6-13T4:18:9Z</time></trkpt>
<trkpt lat="47.40141392" lon="7.00361252"><ele></ele><time>2014-6-13T4:18:12Z</time></trkpt>
<trkpt lat="47.40190744" lon="7.00399876"><ele></ele><time>2014-6-13T4:18:15Z</time></trkpt>
<trkpt lat="47.40244389" lon="7.00408459"><ele></ele><time>2014-6-13T4:18:18Z</time></trkpt>
<trkpt lat="47.40561962" lon="7.01371908"><ele></ele><time>2014-6-13T4:18:21Z</time></trkpt>
<trkpt lat="47.40244389" lon="7.00423479"><ele></ele><time>2014-6-13T4:18:24Z</time></trkpt>
<trkpt lat="47.40188599" lon="7.00408459"><ele></ele><time>2014-6-13T4:18:27Z</time></trkpt>
<trkpt lat="47.40113497" lon="7.00352669"><ele></ele><time>2014-6-13T4:18:30Z</time></trkpt>
<trkpt lat="47.40053415" lon="7.00363398"><ele></ele><time>2014-6-13T4:18:33Z</time></trkpt>
<trkpt lat="47.39907503" lon="7.00466394"><ele></ele><time>2014-6-13T4:18:36Z</time></trkpt>
<trkpt lat="47.39858150" lon="7.00595140"><ele></ele><time>2014-6-13T4:18:39Z</time></trkpt>
<trkpt lat="47.39849567" lon="7.00794697"><ele></ele><time>2014-6-13T4:18:42Z</time></trkpt>
<trkpt lat="47.39943981" lon="7.01088667"><ele></ele><time>2014-6-13T4:18:45Z</time></trkpt>
<trkpt lat="47.40059853" lon="7.01380491"><ele></ele><time>2014-6-13T4:18:48Z</time></trkpt>
<trkpt lat="47.40074873" lon="7.01502800"><ele></ele><time>2014-6-13T4:18:51Z</time></trkpt>
<trkpt lat="47.40004063" lon="7.02022076"><ele></ele><time>2014-6-13T4:18:54Z</time></trkpt>
<trkpt lat="47.39883900" lon="7.02277422"><ele></ele><time>2014-6-13T4:18:57Z</time></trkpt>
<trkpt lat="47.39849567" lon="7.02419043"><ele></ele><time>2014-6-13T4:19:0Z</time></trkpt>
<trkpt lat="47.39806652" lon="7.02749491"><ele></ele><time>2014-6-13T4:19:3Z</time></trkpt>
<trkpt lat="47.39755154" lon="7.02908278"><ele></ele><time>2014-6-13T4:19:6Z</time></trkpt>
<trkpt lat="47.39759445" lon="7.03024149"><ele></ele><time>2014-6-13T4:19:9Z</time></trkpt>
<trkpt lat="47.39789486" lon="7.03109980"><ele></ele><time>2014-6-13T4:19:12Z</time></trkpt>
<trkpt lat="47.40044832" lon="7.03431845"><ele></ele><time>2014-6-13T4:19:15Z</time></trkpt>
<trkpt lat="47.40109205" lon="7.03536987"><ele></ele><time>2014-6-13T4:19:18Z</time></trkpt>
<trkpt lat="47.40197182" lon="7.03833103"><ele></ele><time>2014-6-13T4:19:21Z</time></trkpt>
<trkpt lat="47.40289450" lon="7.03923225"><ele></ele><time>2014-6-13T4:19:24Z</time></trkpt>
<trkpt lat="47.40323782" lon="7.03994036"><ele></ele><time>2014-6-13T4:19:27Z</time></trkpt>
<trkpt lat="47.40392447" lon="7.04275131"><ele></ele><time>2014-6-13T4:19:30Z</time></trkpt>
<trkpt lat="47.40407467" lon="7.04303026"><ele></ele><time>2014-6-13T4:19:33Z</time></trkpt>
<trkpt lat="47.40538359" lon="7.04442501"><ele></ele><time>2014-6-13T4:19:36Z</time></trkpt>
<trkpt lat="47.41027594" lon="7.05363035"><ele></ele><time>2014-6-13T4:19:39Z</time></trkpt>
<trkpt lat="47.41194963" lon="7.05944538"><ele></ele><time>2014-6-13T4:19:42Z</time></trkpt>
<trkpt lat="47.41233587" lon="7.06380129"><ele></ele><time>2014-6-13T4:19:45Z</time></trkpt>
<trkpt lat="47.41297960" lon="7.06744909"><ele></ele><time>2014-6-13T4:19:48Z</time></trkpt>
<trkpt lat="47.41310835" lon="7.06907988"><ele></ele><time>2014-6-13T4:19:51Z</time></trkpt>
<trkpt lat="47.41398811" lon="7.07332850"><ele></ele><time>2014-6-13T4:19:54Z</time></trkpt>
<trkpt lat="47.41503954" lon="7.07588196"><ele></ele><time>2014-6-13T4:19:57Z</time></trkpt>
</trkseg></trk></gpx>